createdAt,value
2022-11-18T00:01:42.548Z,12.10
2022-11-18T00:06:44.357Z,12.00
2022-11-18T00:12:04.500Z,11.97
2022-11-18T00:17:07.847Z,11.40
2022-11-18T00:22:13.101Z,11.83
2022-11-18T00:27:14.980Z,11.90
2022-11-18T00:32:16.767Z,10.97
2022-11-18T00:37:18.478Z,10.13
2022-11-18T00:42:38.497Z,10.70
2022-11-18T00:47:40.267Z,13.13
2022-11-18T00:52:42.080Z,11.80
2022-11-18T00:57:43.774Z,9.57
2022-11-18T01:02:45.514Z,9.57
2022-11-18T01:07:47.312Z,10.30
2022-11-18T01:13:07.426Z,10.80
2022-11-18T01:18:10.427Z,13.37
2022-11-18T01:23:13.613Z,11.10
2022-11-18T01:28:23.349Z,12.07
2022-11-18T01:33:25.530Z,9.17
2022-11-18T01:38:28.386Z,10.83
2022-11-18T01:44:06.618Z,11.40
2022-11-18T01:49:14.818Z,11.63
2022-11-18T01:54:23.586Z,11.17
2022-11-18T01:59:32.414Z,11.53
2022-11-18T02:04:34.925Z,9.00
2022-11-18T02:09:40.022Z,13.63
2022-11-18T02:14:46.761Z,9.90
2022-11-18T02:20:11.653Z,11.20
2022-11-18T02:26:07.246Z,10.50
2022-11-18T02:31:24.769Z,11.63
2022-11-18T02:37:01.156Z,9.83
2022-11-18T02:42:10.445Z,10.30
2022-11-18T02:47:16.764Z,9.80
2022-11-18T02:52:22.766Z,9.50
2022-11-18T02:57:30.098Z,11.23
2022-11-18T03:02:49.114Z,10.03
2022-11-18T03:08:11.071Z,9.77
2022-11-18T03:13:30.185Z,9.77
2022-11-18T03:19:09.012Z,11.20
2022-11-18T03:24:22.662Z,9.93
2022-11-18T03:29:34.185Z,10.83
2022-11-18T03:34:51.730Z,9.40
2022-11-18T03:40:20.897Z,9.73
2022-11-18T03:45:49.569Z,12.70
2022-11-18T03:51:00.110Z,11.20
2022-11-18T03:56:23.659Z,11.37
2022-11-18T04:02:16.293Z,14.67
2022-11-18T04:07:32.066Z,12.37
2022-11-18T04:12:44.209Z,12.70
2022-11-18T04:17:46.172Z,12.30
2022-11-18T04:22:47.971Z,9.47
2022-11-18T04:27:50.120Z,12.30
2022-11-18T04:32:51.852Z,13.63
2022-11-18T04:37:54.457Z,14.23
2022-11-18T04:42:56.251Z,14.77
2022-11-18T04:48:03.335Z,15.63
2022-11-18T04:53:05.658Z,14.10
2022-11-18T04:58:07.357Z,14.80
2022-11-18T05:03:09.090Z,13.27
2022-11-18T05:08:10.833Z,14.30
2022-11-18T05:13:13.321Z,14.53
2022-11-18T05:18:15.014Z,14.67
2022-11-18T05:23:16.747Z,14.30
2022-11-18T05:28:18.493Z,14.80
2022-11-18T05:33:20.213Z,14.37
2022-11-18T05:38:21.952Z,12.07
2022-11-18T05:43:23.715Z,13.27
2022-11-18T05:48:26.228Z,14.67
2022-11-18T05:53:28.068Z,12.50
2022-11-18T05:58:30.296Z,15.43
2022-11-18T06:03:38.536Z,11.27
2022-11-18T06:08:51.372Z,16.37
2022-11-18T06:14:10.643Z,14.47
2022-11-18T06:19:12.514Z,11.00
2022-11-18T06:24:15.491Z,11.30
2022-11-18T06:29:27.272Z,12.20
2022-11-18T06:34:29.546Z,10.37
2022-11-18T06:39:31.270Z,12.00
2022-11-18T06:44:33.071Z,9.00
2022-11-18T06:49:47.694Z,10.10
2022-11-18T06:54:49.525Z,11.33
2022-11-18T06:59:51.256Z,8.57
2022-11-18T07:04:52.983Z,10.57
2022-11-18T07:09:54.936Z,11.03
2022-11-18T07:14:56.636Z,9.77
2022-11-18T07:19:58.385Z,10.13
2022-11-18T07:25:00.122Z,10.20
2022-11-18T07:30:02.001Z,9.17
2022-11-18T07:35:04.100Z,9.87
2022-11-18T07:40:07.287Z,10.93
2022-11-18T07:45:12.690Z,9.90
2022-11-18T07:50:14.623Z,13.47
2022-11-18T07:55:16.402Z,8.80
2022-11-18T08:00:19.286Z,12.03
2022-11-18T08:05:21.159Z,7.70
2022-11-18T08:10:23.064Z,12.47
2022-11-18T08:15:25.791Z,12.90
2022-11-18T08:20:27.875Z,9.20
2022-11-18T08:25:29.685Z,10.43
2022-11-18T08:30:34.238Z,11.47
2022-11-18T08:35:35.986Z,10.43
2022-11-18T08:40:38.266Z,9.03
2022-11-18T08:45:41.237Z,9.30
2022-11-18T08:50:43.236Z,9.10
2022-11-18T08:55:45.114Z,7.87
2022-11-18T09:00:46.879Z,7.00
2022-11-18T09:05:48.784Z,10.53
2022-11-18T09:10:50.486Z,10.40
2022-11-18T09:15:52.306Z,9.57
2022-11-18T09:21:05.364Z,6.93
2022-11-18T09:26:15.688Z,8.50
2022-11-18T09:31:18.931Z,8.17
2022-11-18T09:36:25.568Z,7.37
2022-11-18T09:41:47.812Z,8.77
2022-11-18T09:47:04.352Z,9.20
2022-11-18T09:52:40.756Z,10.20
2022-11-18T09:57:54.317Z,5.33
2022-11-18T10:03:12.415Z,7.23
2022-11-18T10:08:58.399Z,6.83
2022-11-18T10:15:00.005Z,6.60
2022-11-18T10:20:26.440Z,5.37
2022-11-18T10:25:28.191Z,6.30
2022-11-18T10:30:31.285Z,5.13
2022-11-18T10:35:39.652Z,4.77
2022-11-18T10:40:50.601Z,4.47
2022-11-18T10:45:52.394Z,4.77
2022-11-18T10:50:56.083Z,4.47
2022-11-18T10:56:13.232Z,4.50
2022-11-18T11:01:27.350Z,4.07
2022-11-18T11:06:31.505Z,3.43
2022-11-18T11:11:57.241Z,4.23
2022-11-18T11:17:22.803Z,4.03
2022-11-18T11:22:24.596Z,5.60
2022-11-18T11:28:15.287Z,5.17
2022-11-18T11:33:47.926Z,5.30
2022-11-18T11:39:45.755Z,4.00
2022-11-18T11:45:56.982Z,5.67
2022-11-18T11:51:16.468Z,4.17
2022-11-18T11:57:31.741Z,4.90
2022-11-18T12:03:01.107Z,4.90
2022-11-18T12:08:16.870Z,5.03
2022-11-18T12:14:47.904Z,5.50
2022-11-18T12:19:49.626Z,5.83
2022-11-18T12:24:51.408Z,3.33
2022-11-18T12:30:01.729Z,5.50
2022-11-18T12:35:35.537Z,4.50
2022-11-18T12:40:52.193Z,3.77
2022-11-18T12:45:57.667Z,4.17
2022-11-18T12:51:15.823Z,4.80
2022-11-18T12:56:17.442Z,3.30
2022-11-18T13:01:24.511Z,4.13
2022-11-18T13:06:31.318Z,4.70
2022-11-18T13:11:52.901Z,4.90
2022-11-18T13:17:13.010Z,4.20
2022-11-18T13:22:37.016Z,4.83
2022-11-18T13:28:08.765Z,3.37
2022-11-18T13:33:11.956Z,3.50
2022-11-18T13:38:28.396Z,3.63
2022-11-18T13:43:33.381Z,3.60
2022-11-18T13:48:41.457Z,4.10
2022-11-18T13:53:44.417Z,3.53
2022-11-18T13:59:28.812Z,3.27
2022-11-18T14:04:26.463Z,4.37
2022-11-18T14:09:31.506Z,4.40
2022-11-18T14:14:41.275Z,3.67
2022-11-18T14:19:45.799Z,3.60
2022-11-18T14:25:28.197Z,3.40
2022-11-18T14:30:44.183Z,3.50
2022-11-18T14:36:18.203Z,3.27
2022-11-18T14:41:44.378Z,3.07
2022-11-18T14:46:53.409Z,3.07
2022-11-18T14:51:55.832Z,3.07
2022-11-18T14:57:02.831Z,3.03
2022-11-18T15:02:04.643Z,3.10
2022-11-18T15:07:06.637Z,2.17
2022-11-18T15:12:08.717Z,2.97
2022-11-18T15:17:13.188Z,2.40
2022-11-18T15:22:14.891Z,3.17
2022-11-18T15:27:16.638Z,2.83
2022-11-18T15:32:18.385Z,3.20
2022-11-18T15:37:20.277Z,3.10
2022-11-18T15:42:23.438Z,3.47
2022-11-18T15:47:25.478Z,3.20
2022-11-18T15:52:28.357Z,3.13
2022-11-18T15:57:30.154Z,3.30
2022-11-18T16:02:31.907Z,3.13
2022-11-18T16:07:33.848Z,2.70
2022-11-18T16:12:48.651Z,2.80
2022-11-18T16:17:50.396Z,3.07
2022-11-18T16:22:53.913Z,2.80
2022-11-18T16:27:57.697Z,2.97
2022-11-18T16:33:01.490Z,3.07
2022-11-18T16:38:03.495Z,2.60
2022-11-18T16:43:05.353Z,2.97
2022-11-18T16:48:07.115Z,3.87
2022-11-18T16:53:09.082Z,3.10
2022-11-18T16:58:11.716Z,3.40
2022-11-18T17:03:13.524Z,4.00
2022-11-18T17:08:15.350Z,3.33
2022-11-18T17:13:17.143Z,2.93
2022-11-18T17:18:18.914Z,3.27
2022-11-18T17:23:20.745Z,3.70
2022-11-18T17:28:22.542Z,4.53
2022-11-18T17:33:24.657Z,5.10
2022-11-18T17:38:26.889Z,4.50
2022-11-18T17:43:29.840Z,5.37
2022-11-18T17:48:31.710Z,5.00
2022-11-18T17:53:33.473Z,6.63
2022-11-18T17:58:35.328Z,5.03
2022-11-18T18:03:38.075Z,8.27
2022-11-18T18:08:40.678Z,6.00
2022-11-18T18:14:02.337Z,7.00
2022-11-18T18:19:06.590Z,8.20
2022-11-18T18:24:10.001Z,8.17
2022-11-18T18:29:12.785Z,7.03
2022-11-18T18:34:17.872Z,6.10
2022-11-18T18:39:19.909Z,7.10
2022-11-18T18:44:22.079Z,8.00
2022-11-18T18:49:24.395Z,9.00
2022-11-18T18:54:26.200Z,8.33
2022-11-18T18:59:28.273Z,8.97
2022-11-18T19:04:30.211Z,8.47
2022-11-18T19:09:37.042Z,8.20
2022-11-18T19:14:38.840Z,8.27
2022-11-18T19:20:01.483Z,8.43
2022-11-18T19:25:03.597Z,7.93
2022-11-18T19:30:09.537Z,8.30
2022-11-18T19:35:11.734Z,8.60
2022-11-18T19:40:15.657Z,8.30
2022-11-18T19:45:17.635Z,8.43
2022-11-18T19:50:19.644Z,7.63
2022-11-18T19:55:21.402Z,8.60
2022-11-18T20:00:23.180Z,9.40
2022-11-18T20:05:47.138Z,8.17
2022-11-18T20:10:53.164Z,9.00
2022-11-18T20:16:02.745Z,8.70
2022-11-18T20:21:15.120Z,10.33
2022-11-18T20:26:20.911Z,10.73
2022-11-18T20:31:24.003Z,9.43
2022-11-18T20:36:34.748Z,12.50
2022-11-18T20:41:36.642Z,9.00
2022-11-18T20:46:38.437Z,9.00
2022-11-18T20:51:40.243Z,8.97
2022-11-18T20:56:42.143Z,8.00
2022-11-18T21:01:44.410Z,9.30
2022-11-18T21:06:46.244Z,8.40
2022-11-18T21:11:47.983Z,10.83
2022-11-18T21:16:51.096Z,10.50
2022-11-18T21:21:54.915Z,10.80
2022-11-18T21:26:59.083Z,11.30
2022-11-18T21:32:01.618Z,10.47
2022-11-18T21:37:05.232Z,9.93
2022-11-18T21:42:07.094Z,9.57
2022-11-18T21:47:08.890Z,9.37
2022-11-18T21:52:10.658Z,8.60
2022-11-18T21:57:12.424Z,8.63
2022-11-18T22:02:14.897Z,8.17
2022-11-18T22:07:16.765Z,9.07
2022-11-18T22:12:18.693Z,8.10
2022-11-18T22:17:20.496Z,8.10
2022-11-18T22:22:22.275Z,8.90
2022-11-18T22:27:24.245Z,7.83
2022-11-18T22:32:25.998Z,7.83
2022-11-18T22:37:27.767Z,8.70
2022-11-18T22:42:47.958Z,7.17
2022-11-18T22:47:49.757Z,10.30
2022-11-18T22:52:51.554Z,10.60
2022-11-18T22:57:53.311Z,10.73
2022-11-18T23:02:55.058Z,10.10
2022-11-18T23:07:56.888Z,7.80
2022-11-18T23:13:17.049Z,9.73
2022-11-18T23:18:18.760Z,6.27
2022-11-18T23:23:20.492Z,6.03
2022-11-18T23:28:22.511Z,5.73
2022-11-18T23:33:24.186Z,5.70
2022-11-18T23:38:28.623Z,5.40
2022-11-18T23:43:31.080Z,5.40
2022-11-18T23:48:40.283Z,6.00
2022-11-18T23:53:43.011Z,4.73
2022-11-18T23:58:49.027Z,4.87
